createdAt,value
2022-12-07T00:01:17.847Z,2.83
2022-12-07T00:03:47.359Z,2.89
2022-12-07T00:06:16.719Z,2.70
2022-12-07T00:08:45.078Z,2.85
2022-12-07T00:11:21.121Z,2.72
2022-12-07T00:13:54.312Z,2.51
2022-12-07T00:16:25.004Z,2.51
2022-12-07T00:18:52.912Z,2.34
2022-12-07T00:21:26.237Z,2.62
2022-12-07T00:23:55.436Z,2.22
2022-12-07T00:26:29.178Z,2.26
2022-12-07T00:29:01.033Z,2.46
2022-12-07T00:31:31.693Z,2.41
2022-12-07T00:33:59.801Z,2.29
2022-12-07T00:36:27.829Z,2.37
2022-12-07T00:38:56.172Z,2.42
2022-12-07T00:41:25.551Z,2.31
2022-12-07T00:43:53.373Z,2.38
2022-12-07T00:46:22.379Z,2.36
2022-12-07T00:48:51.596Z,2.34
2022-12-07T00:51:20.911Z,2.27
2022-12-07T00:53:48.638Z,2.12
2022-12-07T00:56:20.218Z,2.25
2022-12-07T00:58:58.117Z,2.22
2022-12-07T01:01:28.855Z,2.18
2022-12-07T01:03:56.595Z,2.20
2022-12-07T01:06:25.417Z,2.07
2022-12-07T01:08:54.125Z,2.05
2022-12-07T01:11:25.090Z,2.08
2022-12-07T01:13:55.164Z,2.04
2022-12-07T01:16:24.736Z,2.03
2022-12-07T01:18:54.090Z,1.93
2022-12-07T01:21:30.684Z,1.95
2022-12-07T01:23:59.223Z,1.97
2022-12-07T01:26:27.945Z,1.91
2022-12-07T01:28:55.797Z,1.66
2022-12-07T01:31:25.236Z,1.67
2022-12-07T01:33:55.680Z,1.45
2022-12-07T01:36:24.353Z,1.51
2022-12-07T01:38:54.898Z,1.47
2022-12-07T01:41:24.617Z,1.55
2022-12-07T01:44:20.339Z,1.73
2022-12-07T01:46:59.749Z,1.94
2022-12-07T01:49:32.972Z,2.07
2022-12-07T01:52:09.370Z,2.26
2022-12-07T01:54:37.184Z,2.46
2022-12-07T01:57:05.917Z,2.48
2022-12-07T01:59:34.251Z,2.27
2022-12-07T02:02:03.572Z,2.15
2022-12-07T02:04:31.545Z,2.11
2022-12-07T02:06:59.319Z,1.97
2022-12-07T02:09:27.328Z,1.78
2022-12-07T02:11:55.848Z,1.73
2022-12-07T02:14:23.570Z,1.89
2022-12-07T02:16:55.306Z,1.62
2022-12-07T02:19:26.201Z,1.17
2022-12-07T02:22:27.530Z,1.68
2022-12-07T02:25:18.869Z,1.28
2022-12-07T02:27:51.478Z,1.33
2022-12-07T02:30:21.052Z,1.47
2022-12-07T02:33:08.775Z,1.13
2022-12-07T02:35:57.182Z,1.15
2022-12-07T02:38:27.054Z,1.04
2022-12-07T02:41:07.221Z,1.38
2022-12-07T02:43:44.406Z,1.15
2022-12-07T02:46:15.897Z,1.49
2022-12-07T02:48:44.534Z,1.90
2022-12-07T02:51:12.612Z,1.48
2022-12-07T02:53:42.834Z,1.55
2022-12-07T02:56:16.481Z,1.38
2022-12-07T02:58:47.464Z,1.65
2022-12-07T03:01:27.311Z,1.80
2022-12-07T03:04:12.922Z,1.92
2022-12-07T03:06:50.254Z,2.02
2022-12-07T03:09:26.774Z,2.28
2022-12-07T03:12:02.088Z,2.20
2022-12-07T03:14:36.590Z,2.22
2022-12-07T03:17:08.603Z,2.14
2022-12-07T03:19:37.498Z,2.32
2022-12-07T03:22:09.154Z,2.20
2022-12-07T03:24:45.342Z,2.17
2022-12-07T03:27:34.326Z,2.28
2022-12-07T03:30:16.574Z,2.15
2022-12-07T03:32:54.889Z,2.24
2022-12-07T03:35:32.928Z,2.31
2022-12-07T03:38:10.038Z,2.47
2022-12-07T03:40:45.988Z,2.55
2022-12-07T03:43:13.662Z,2.44
2022-12-07T03:45:44.387Z,2.36
2022-12-07T03:48:12.014Z,2.46
2022-12-07T03:50:58.506Z,2.61
2022-12-07T03:53:32.458Z,2.73
2022-12-07T03:56:00.224Z,2.63
2022-12-07T03:58:28.800Z,2.71
2022-12-07T04:00:57.965Z,2.38
2022-12-07T04:03:26.304Z,2.65
2022-12-07T04:05:54.581Z,2.78
2022-12-07T04:08:22.755Z,2.47
2022-12-07T04:10:50.904Z,2.80
2022-12-07T04:13:18.619Z,2.80
2022-12-07T04:15:46.333Z,2.90
2022-12-07T04:18:14.317Z,2.98
2022-12-07T04:20:41.968Z,2.98
2022-12-07T04:23:09.974Z,2.87
2022-12-07T04:25:37.939Z,2.96
2022-12-07T04:28:05.593Z,2.92
2022-12-07T04:30:33.212Z,2.96
2022-12-07T04:33:01.167Z,3.12
2022-12-07T04:35:28.661Z,3.10
2022-12-07T04:37:56.389Z,3.11
2022-12-07T04:40:24.236Z,3.17
2022-12-07T04:42:51.976Z,3.00
2022-12-07T04:45:19.596Z,3.06
2022-12-07T04:47:47.547Z,3.18
2022-12-07T04:50:15.133Z,3.31
2022-12-07T04:52:42.770Z,3.36
2022-12-07T04:55:10.641Z,3.23
2022-12-07T04:57:38.318Z,3.20
2022-12-07T05:00:06.664Z,3.18
2022-12-07T05:02:34.636Z,2.94
2022-12-07T05:05:02.266Z,2.62
2022-12-07T05:07:29.878Z,2.72
2022-12-07T05:09:58.874Z,3.04
2022-12-07T05:12:26.840Z,2.85
2022-12-07T05:14:54.527Z,2.99
2022-12-07T05:17:22.510Z,3.09
2022-12-07T05:19:50.215Z,3.17
2022-12-07T05:22:17.995Z,3.27
2022-12-07T05:24:45.989Z,3.01
2022-12-07T05:27:13.888Z,3.28
2022-12-07T05:29:44.210Z,3.24
2022-12-07T05:32:12.135Z,3.21
2022-12-07T05:34:39.738Z,3.26
2022-12-07T05:37:07.355Z,3.09
2022-12-07T05:39:35.592Z,3.38
2022-12-07T05:42:03.291Z,3.38
2022-12-07T05:44:31.014Z,3.65
2022-12-07T05:46:58.953Z,3.56
2022-12-07T05:49:26.840Z,3.39
2022-12-07T05:51:54.821Z,3.51
2022-12-07T05:54:22.722Z,3.50
2022-12-07T05:56:50.466Z,3.63
2022-12-07T05:59:18.268Z,2.92
2022-12-07T06:01:46.440Z,3.22
2022-12-07T06:04:14.344Z,3.36
2022-12-07T06:06:42.212Z,3.11
2022-12-07T06:09:09.996Z,3.17
2022-12-07T06:11:37.893Z,2.64
2022-12-07T06:14:05.549Z,2.68
2022-12-07T06:16:33.270Z,2.65
2022-12-07T06:19:01.175Z,2.75
2022-12-07T06:21:29.353Z,2.55
2022-12-07T06:23:57.055Z,2.40
2022-12-07T06:26:25.143Z,2.55
2022-12-07T06:28:52.838Z,2.89
2022-12-07T06:31:20.426Z,3.06
2022-12-07T06:33:48.321Z,2.77
2022-12-07T06:36:15.986Z,3.00
2022-12-07T06:38:43.654Z,3.09
2022-12-07T06:41:11.536Z,2.76
2022-12-07T06:43:39.082Z,2.99
2022-12-07T06:46:06.731Z,3.02
2022-12-07T06:48:34.778Z,3.07
2022-12-07T06:51:02.362Z,3.23
2022-12-07T06:53:29.886Z,3.55
2022-12-07T06:55:57.858Z,3.67
2022-12-07T06:58:25.796Z,3.50
2022-12-07T07:00:53.483Z,3.57
2022-12-07T07:03:21.856Z,3.37
2022-12-07T07:05:50.012Z,3.49
2022-12-07T07:08:22.607Z,3.54
2022-12-07T07:10:51.268Z,3.72
2022-12-07T07:13:18.909Z,3.69
2022-12-07T07:15:46.593Z,3.77
2022-12-07T07:18:14.479Z,3.74
2022-12-07T07:20:42.317Z,3.61
2022-12-07T07:23:09.916Z,3.66
2022-12-07T07:25:37.876Z,3.69
2022-12-07T07:28:05.927Z,3.69
2022-12-07T07:30:33.692Z,3.78
2022-12-07T07:33:03.449Z,3.80
2022-12-07T07:35:33.260Z,3.75
2022-12-07T07:38:01.618Z,3.67
2022-12-07T07:40:29.359Z,3.88
2022-12-07T07:42:57.025Z,3.81
2022-12-07T07:45:26.196Z,3.59
2022-12-07T07:47:53.882Z,3.47
2022-12-07T07:50:21.737Z,3.21
2022-12-07T07:52:49.766Z,3.26
2022-12-07T07:55:17.490Z,2.98
2022-12-07T07:57:49.638Z,2.70
2022-12-07T08:00:21.248Z,3.13
2022-12-07T08:02:49.300Z,2.91
2022-12-07T08:05:17.409Z,2.75
2022-12-07T08:07:45.166Z,2.63
2022-12-07T08:10:14.632Z,2.80
2022-12-07T08:12:43.788Z,3.19
2022-12-07T08:15:11.477Z,3.04
2022-12-07T08:17:39.374Z,3.45
2022-12-07T08:20:08.664Z,3.51
2022-12-07T08:22:36.335Z,3.55
2022-12-07T08:25:04.506Z,3.28
2022-12-07T08:27:32.071Z,3.17
2022-12-07T08:30:00.733Z,3.09
2022-12-07T08:32:29.319Z,3.52
2022-12-07T08:34:56.978Z,3.57
2022-12-07T08:37:24.603Z,3.63
2022-12-07T08:39:53.807Z,2.75
2022-12-07T08:42:21.384Z,2.77
2022-12-07T08:44:50.082Z,3.27
2022-12-07T08:47:18.055Z,3.45
2022-12-07T08:49:48.810Z,3.75
2022-12-07T08:52:16.797Z,3.88
2022-12-07T08:54:45.609Z,4.23
2022-12-07T08:57:13.361Z,4.26
2022-12-07T08:59:41.125Z,4.09
2022-12-07T09:02:09.310Z,4.05
2022-12-07T09:04:37.090Z,3.72
2022-12-07T09:07:04.825Z,4.24
2022-12-07T09:09:33.048Z,4.36
2022-12-07T09:12:04.020Z,4.23
2022-12-07T09:14:31.979Z,3.96
2022-12-07T09:17:10.368Z,4.15
2022-12-07T09:19:38.718Z,4.28
2022-12-07T09:22:06.586Z,4.43
2022-12-07T09:24:34.369Z,3.86
2022-12-07T09:27:02.222Z,4.51
2022-12-07T09:29:29.816Z,4.55
2022-12-07T09:31:57.535Z,5.03
2022-12-07T09:34:25.645Z,4.81
2022-12-07T09:36:53.309Z,4.96
2022-12-07T09:39:21.007Z,4.89
2022-12-07T09:41:49.254Z,5.22
2022-12-07T09:44:25.515Z,4.89
2022-12-07T09:46:56.256Z,4.94
2022-12-07T09:49:25.782Z,5.43
2022-12-07T09:55:30.246Z,5.59
2022-12-07T09:57:59.166Z,5.81
2022-12-07T10:00:27.118Z,5.74
2022-12-07T10:02:59.174Z,5.72
2022-12-07T10:05:32.954Z,5.22
2022-12-07T10:08:02.494Z,5.81
2022-12-07T10:10:38.541Z,5.33
2022-12-07T10:13:10.988Z,5.15
2022-12-07T10:16:05.036Z,4.83
2022-12-07T10:18:42.929Z,5.18
2022-12-07T10:21:13.504Z,5.44
2022-12-07T10:24:00.739Z,5.70
2022-12-07T10:26:39.270Z,5.34
2022-12-07T10:29:25.437Z,5.22
2022-12-07T10:32:18.197Z,5.91
2022-12-07T10:34:52.140Z,5.79
2022-12-07T10:37:21.230Z,5.63
2022-12-07T10:39:51.984Z,6.09
2022-12-07T10:42:26.382Z,6.50
2022-12-07T10:45:18.264Z,5.98
2022-12-07T10:48:05.870Z,6.28
2022-12-07T10:50:52.260Z,6.85
2022-12-07T10:53:47.356Z,6.17
2022-12-07T10:56:24.311Z,6.04
2022-12-07T10:59:16.728Z,5.73
2022-12-07T11:02:09.006Z,5.84
2022-12-07T11:04:42.849Z,5.85
2022-12-07T11:07:35.275Z,5.84
2022-12-07T11:10:27.287Z,6.11
2022-12-07T11:13:19.859Z,5.54
2022-12-07T11:16:01.807Z,5.46
2022-12-07T11:18:49.149Z,5.37
2022-12-07T11:21:53.803Z,5.43
2022-12-07T11:24:29.249Z,5.48
2022-12-07T11:27:06.896Z,5.66
2022-12-07T11:29:43.607Z,5.34
2022-12-07T11:32:23.195Z,5.13
2022-12-07T11:35:00.263Z,5.47
2022-12-07T11:37:36.511Z,5.99
2022-12-07T11:40:13.704Z,6.39
2022-12-07T11:42:52.474Z,6.40
2022-12-07T11:45:34.632Z,6.75
2022-12-07T11:48:05.624Z,7.05
2022-12-07T11:50:55.870Z,7.36
2022-12-07T11:53:35.878Z,6.81
2022-12-07T11:56:18.082Z,6.62
2022-12-07T11:58:48.484Z,6.62
2022-12-07T12:01:57.845Z,7.41
2022-12-07T12:04:51.998Z,7.30
2022-12-07T12:10:20.314Z,7.95
2022-12-07T12:15:58.681Z,8.33
2022-12-07T12:18:53.295Z,8.67
2022-12-07T12:21:27.659Z,8.42
2022-12-07T12:24:04.432Z,8.76
2022-12-07T12:26:34.308Z,7.84
2022-12-07T12:29:22.548Z,8.07
2022-12-07T12:32:19.457Z,7.94
2022-12-07T12:34:50.911Z,8.11
2022-12-07T12:37:34.414Z,8.56
2022-12-07T12:40:17.422Z,8.27
2022-12-07T12:42:45.567Z,9.37
2022-12-07T12:45:42.584Z,9.60
2022-12-07T12:48:30.017Z,9.41
2022-12-07T12:51:35.857Z,9.69
2022-12-07T12:54:17.014Z,9.09
2022-12-07T12:56:53.134Z,8.80
2022-12-07T12:59:31.551Z,9.13
2022-12-07T13:02:25.141Z,9.14
2022-12-07T13:04:53.426Z,8.61
2022-12-07T13:08:17.760Z,8.51
2022-12-07T13:10:47.789Z,8.77
2022-12-07T13:13:15.517Z,9.28
2022-12-07T13:15:53.987Z,8.64
2022-12-07T13:18:39.831Z,8.47
2022-12-07T13:21:07.982Z,8.61
2022-12-07T13:23:44.993Z,8.58
2022-12-07T13:26:35.843Z,8.84
2022-12-07T13:29:44.137Z,8.50
2022-12-07T13:32:27.584Z,8.65
2022-12-07T13:34:56.810Z,8.15
2022-12-07T13:37:42.534Z,8.37
2022-12-07T13:40:19.805Z,7.85
2022-12-07T13:43:00.126Z,7.98
2022-12-07T13:45:31.609Z,7.79
2022-12-07T13:48:00.360Z,7.57
2022-12-07T13:50:30.872Z,7.67
2022-12-07T13:53:00.425Z,7.56
2022-12-07T13:55:29.874Z,7.39
2022-12-07T13:57:57.539Z,7.19
2022-12-07T14:00:27.833Z,7.48
2022-12-07T14:03:02.447Z,7.14
2022-12-07T14:05:32.082Z,7.09
2022-12-07T14:08:11.917Z,6.93
2022-12-07T14:10:55.619Z,6.84
2022-12-07T14:13:33.719Z,6.76
2022-12-07T14:16:25.866Z,6.83
2022-12-07T14:18:55.527Z,6.95
2022-12-07T14:21:30.990Z,6.82
2022-12-07T14:24:19.705Z,6.86
2022-12-07T14:26:49.316Z,6.90
2022-12-07T14:29:52.889Z,6.86
2022-12-07T14:32:40.776Z,6.89
2022-12-07T15:15:07.164Z,6.26
2022-12-07T15:17:34.888Z,6.23
2022-12-07T15:20:03.863Z,6.20
2022-12-07T15:22:38.035Z,6.15
2022-12-07T15:25:07.005Z,6.04
2022-12-07T15:27:34.748Z,5.95
2022-12-07T15:30:04.984Z,5.96
2022-12-07T15:32:33.037Z,5.77
2022-12-07T15:35:41.162Z,5.71
2022-12-07T15:38:39.549Z,5.78
2022-12-07T15:41:10.449Z,5.49
2022-12-07T15:43:38.425Z,5.73
2022-12-07T15:46:06.137Z,5.58
2022-12-07T15:48:34.027Z,5.65
2022-12-07T15:51:04.152Z,5.40
2022-12-07T15:53:31.751Z,5.42
2022-12-07T15:55:59.389Z,5.21
2022-12-07T15:58:27.812Z,4.99
2022-12-07T16:00:55.555Z,5.08
2022-12-07T16:03:23.511Z,4.93
2022-12-07T16:05:52.514Z,4.66
2022-12-07T16:08:20.460Z,4.74
2022-12-07T16:10:48.496Z,4.54
2022-12-07T16:13:16.141Z,4.44
2022-12-07T16:15:44.152Z,4.26
2022-12-07T16:18:15.084Z,4.15
2022-12-07T16:23:49.897Z,4.06
2022-12-07T16:26:28.314Z,3.98
2022-12-07T16:31:53.562Z,3.72
2022-12-07T16:34:31.974Z,3.73
2022-12-07T16:37:04.611Z,3.62
2022-12-07T16:39:34.199Z,3.61
2022-12-07T16:42:03.639Z,3.51
2022-12-07T16:44:31.641Z,3.39
2022-12-07T16:46:59.340Z,3.37
2022-12-07T16:49:27.751Z,3.68
2022-12-07T16:52:18.212Z,3.50
2022-12-07T16:54:43.705Z,3.57
2022-12-07T16:57:14.322Z,3.47
2022-12-07T16:59:46.465Z,3.46
2022-12-07T17:02:14.184Z,3.41
2022-12-07T17:04:42.925Z,3.33
2022-12-07T17:07:11.297Z,3.36
2022-12-07T17:09:39.038Z,3.32
2022-12-07T17:12:09.017Z,3.25
2022-12-07T17:14:36.969Z,3.17
2022-12-07T17:17:04.624Z,3.11
2022-12-07T17:19:32.400Z,3.10
2022-12-07T17:22:00.398Z,3.00
2022-12-07T17:24:28.298Z,3.03
2022-12-07T17:26:56.041Z,2.99
2022-12-07T17:29:24.233Z,2.95
2022-12-07T17:31:52.327Z,2.92
2022-12-07T17:34:22.987Z,2.89
2022-12-07T17:36:59.984Z,3.05
2022-12-07T17:39:28.081Z,2.98
2022-12-07T17:41:55.937Z,2.90
2022-12-07T17:44:23.662Z,2.86
2022-12-07T17:46:53.326Z,2.85
2022-12-07T17:49:21.630Z,2.78
2022-12-07T17:51:49.499Z,2.77
2022-12-07T17:54:17.638Z,2.69
2022-12-07T17:56:46.248Z,2.80
2022-12-07T17:59:14.502Z,2.60
2022-12-07T18:01:42.970Z,2.63
2022-12-07T18:04:17.294Z,2.68
2022-12-07T18:06:51.801Z,2.66
2022-12-07T18:09:20.773Z,2.63
2022-12-07T18:11:48.671Z,2.58
2022-12-07T18:14:16.966Z,2.50
2022-12-07T18:16:45.273Z,2.35
2022-12-07T18:19:13.484Z,2.31
2022-12-07T18:21:41.630Z,2.17
2022-12-07T18:24:14.395Z,2.36
2022-12-07T18:26:43.612Z,2.20
2022-12-07T18:29:14.820Z,2.02
2022-12-07T18:31:42.979Z,2.07
2022-12-07T18:34:16.670Z,2.07
2022-12-07T18:36:45.796Z,2.17
2022-12-07T18:39:33.618Z,1.97
2022-12-07T18:42:21.459Z,1.95
2022-12-07T18:44:49.576Z,2.16
2022-12-07T18:47:17.814Z,1.93
2022-12-07T18:49:45.745Z,2.11
2022-12-07T18:52:13.765Z,2.04
2022-12-07T18:54:41.602Z,2.08
2022-12-07T18:57:09.795Z,2.18
2022-12-07T18:59:38.474Z,2.26
2022-12-07T19:02:06.186Z,2.21
2022-12-07T19:04:34.440Z,2.08
2022-12-07T19:07:02.614Z,2.24
2022-12-07T19:09:32.380Z,2.25
2022-12-07T19:12:00.182Z,2.26
2022-12-07T19:14:32.364Z,2.29
2022-12-07T19:17:03.799Z,2.30
2022-12-07T19:19:34.743Z,2.46
2022-12-07T19:22:03.053Z,2.18
2022-12-07T19:24:31.581Z,2.02
2022-12-07T19:26:59.585Z,1.93
2022-12-07T19:29:29.276Z,2.09
2022-12-07T19:32:01.401Z,1.96
2022-12-07T19:34:29.527Z,1.86
2022-12-07T19:36:57.811Z,1.90
2022-12-07T19:39:26.136Z,1.97
2022-12-07T19:41:55.223Z,1.86
2022-12-07T19:44:25.352Z,2.18
2022-12-07T19:46:57.398Z,2.07
2022-12-07T19:49:31.973Z,2.04
2022-12-07T19:52:01.815Z,1.92
2022-12-07T19:54:34.142Z,1.91
2022-12-07T19:57:01.884Z,2.03
2022-12-07T19:59:30.680Z,2.03
2022-12-07T20:01:58.881Z,2.05
2022-12-07T20:04:31.334Z,2.00
2022-12-07T20:07:00.754Z,1.91
2022-12-07T20:09:28.771Z,1.91
2022-12-07T20:11:56.474Z,1.90
2022-12-07T20:14:24.417Z,1.85
2022-12-07T20:16:52.928Z,1.82
2022-12-07T20:19:21.204Z,1.76
2022-12-07T20:21:49.804Z,1.79
2022-12-07T20:24:21.220Z,1.78
2022-12-07T20:26:51.020Z,1.71
2022-12-07T20:29:23.956Z,1.81
2022-12-07T20:31:53.478Z,1.79
2022-12-07T20:34:22.056Z,1.85
2022-12-07T20:36:49.924Z,1.68
2022-12-07T20:39:19.098Z,1.59
2022-12-07T20:41:47.232Z,1.83
2022-12-07T20:44:16.426Z,1.95
2022-12-07T20:46:45.464Z,1.88
2022-12-07T20:49:15.013Z,1.61
2022-12-07T20:51:42.911Z,1.69
2022-12-07T20:54:11.888Z,1.49
2022-12-07T20:56:40.663Z,1.66
2022-12-07T20:59:11.215Z,1.35
2022-12-07T21:01:39.084Z,1.55
2022-12-07T21:04:07.684Z,1.58
2022-12-07T21:06:35.343Z,1.60
2022-12-07T21:09:04.596Z,1.60
2022-12-07T21:11:34.277Z,1.53
2022-12-07T21:14:03.598Z,1.49
2022-12-07T21:16:31.972Z,1.41
2022-12-07T21:19:01.379Z,1.32
2022-12-07T21:21:30.542Z,1.21
2022-12-07T21:24:02.915Z,1.12
2022-12-07T21:26:33.111Z,1.25
2022-12-07T21:29:01.773Z,1.32
2022-12-07T21:31:29.619Z,1.19
2022-12-07T21:33:57.668Z,1.25
2022-12-07T21:36:26.143Z,1.23
2022-12-07T21:38:54.006Z,1.17
2022-12-07T21:41:24.108Z,1.27
2022-12-07T21:43:52.296Z,1.17
2022-12-07T21:46:22.015Z,1.22
2022-12-07T21:48:58.257Z,1.29
2022-12-07T21:51:27.622Z,1.18
2022-12-07T21:53:57.137Z,1.24
2022-12-07T21:56:31.154Z,1.20
2022-12-07T21:59:01.244Z,1.17
2022-12-07T22:01:30.983Z,1.35
2022-12-07T22:03:58.925Z,1.43
2022-12-07T22:06:26.868Z,1.50
2022-12-07T22:08:56.094Z,1.56
2022-12-07T22:11:24.024Z,1.53
2022-12-07T22:13:51.721Z,1.50
2022-12-07T22:16:19.735Z,1.48
2022-12-07T22:18:48.098Z,1.57
2022-12-07T22:21:15.845Z,1.54
2022-12-07T22:23:43.532Z,1.41
2022-12-07T22:26:13.547Z,1.50
2022-12-07T22:28:42.131Z,1.57
2022-12-07T22:31:12.165Z,1.54
2022-12-07T22:33:40.331Z,1.46
2022-12-07T22:36:09.209Z,1.33
2022-12-07T22:38:38.117Z,0.58
2022-12-07T22:41:12.911Z,0.54
2022-12-07T22:43:40.493Z,0.70
2022-12-07T22:46:09.796Z,0.42
2022-12-07T22:48:37.668Z,0.34
2022-12-07T22:51:05.414Z,0.37
2022-12-07T22:53:33.393Z,0.28
2022-12-07T22:56:01.093Z,0.39
2022-12-07T22:58:29.066Z,0.47
2022-12-07T23:00:57.046Z,0.41
2022-12-07T23:03:24.692Z,0.37
2022-12-07T23:05:52.261Z,0.20
2022-12-07T23:08:20.283Z,0.29
2022-12-07T23:10:48.883Z,0.19
2022-12-07T23:13:17.721Z,0.40
2022-12-07T23:15:45.761Z,0.37
2022-12-07T23:18:13.451Z,0.44
2022-12-07T23:20:41.099Z,0.43
2022-12-07T23:23:09.038Z,0.32
2022-12-07T23:25:36.692Z,0.44
2022-12-07T23:28:04.337Z,0.34
2022-12-07T23:30:32.485Z,0.36
2022-12-07T23:33:00.032Z,0.33
2022-12-07T23:35:27.901Z,0.29
2022-12-07T23:37:55.814Z,0.40
2022-12-07T23:40:23.608Z,0.30
2022-12-07T23:42:53.002Z,0.24
2022-12-07T23:45:20.949Z,0.20
2022-12-07T23:47:49.276Z,0.26
2022-12-07T23:50:16.923Z,0.23
2022-12-07T23:52:44.982Z,0.23
2022-12-07T23:55:12.637Z,0.15
2022-12-07T23:57:40.338Z,0.20
